Time;durP1;ratioP1;P1;durP2;ratioP2;P2;SDS_P1;SDS_P2;PMS_P1;PMS_P2;Temp;Humidity;BMP_temperature;BMP_pressure;BME280_temperature;BME280_humidity;BME280_pressure;Samples;Min_cycle;Max_cycle;Signal;HPM_P1;HPM_P2
2022/08/15 00:00:50;;;;;;;6.35;5.93;;;20.20;99.90;;;;;;5027541;28;20180;-74
2022/08/15 00:03:25;;;;;;;5.90;5.50;;;20.20;99.90;;;;;;5023002;28;20178;-74
2022/08/15 00:05:52;;;;;;;6.15;5.65;;;20.20;99.90;;;;;;5027999;28;20291;-74
2022/08/15 00:08:18;;;;;;;6.30;5.50;;;20.10;99.90;;;;;;5030292;28;20682;-74
2022/08/15 00:10:45;;;;;;;6.32;5.82;;;20.10;99.90;;;;;;5028743;28;20222;-74
2022/08/15 00:13:17;;;;;;;6.53;5.90;;;20.10;99.90;;;;;;5020804;28;20197;-74
2022/08/15 00:15:46;;;;;;;6.38;5.78;;;20.10;99.90;;;;;;5034742;28;20172;-74
2022/08/15 00:18:13;;;;;;;6.75;6.22;;;20.10;99.90;;;;;;5035065;28;20260;-74
2022/08/15 00:20:39;;;;;;;5.72;5.30;;;20.00;99.90;;;;;;5030401;28;20235;-73
2022/08/15 00:23:09;;;;;;;6.20;5.80;;;20.00;99.90;;;;;;5034024;28;20188;-74
2022/08/15 00:25:37;;;;;;;6.28;5.78;;;20.00;99.90;;;;;;5039377;28;20688;-74
2022/08/15 00:28:05;;;;;;;6.45;6.05;;;20.10;99.90;;;;;;5026438;28;20204;-74
2022/08/15 00:30:33;;;;;;;6.05;5.55;;;20.00;99.90;;;;;;5027395;28;20635;-74
2022/08/15 00:32:59;;;;;;;6.72;6.22;;;19.90;99.90;;;;;;5033553;28;20189;-74
2022/08/15 00:35:36;;;;;;;6.43;5.82;;;19.90;99.90;;;;;;5022109;28;20188;-74
2022/08/15 00:38:17;;;;;;;6.95;6.45;;;19.80;99.90;;;;;;5027275;28;20682;-74
2022/08/15 00:43:33;;;;;;;6.40;5.90;;;19.70;99.90;;;;;;5026075;28;20231;-74
2022/08/15 00:45:59;;;;;;;7.53;6.60;;;19.70;99.90;;;;;;5022241;28;20215;-74
2022/08/15 00:48:41;;;;;;;6.68;6.07;;;19.70;99.90;;;;;;5023227;28;20185;-74
2022/08/15 00:51:12;;;;;;;6.43;5.93;;;19.60;99.90;;;;;;5032155;28;20168;-74
2022/08/15 00:53:38;;;;;;;7.22;6.63;;;19.60;99.90;;;;;;5028772;28;20227;-74
2022/08/15 00:56:05;;;;;;;7.07;6.38;;;19.50;99.90;;;;;;5027565;28;20205;-74
2022/08/15 00:58:31;;;;;;;6.72;6.22;;;19.50;99.90;;;;;;5031311;28;20188;-74
2022/08/15 01:00:57;;;;;;;7.18;6.57;;;19.50;99.90;;;;;;5029896;28;20557;-74
2022/08/15 01:03:29;;;;;;;7.10;6.40;;;19.50;99.90;;;;;;5020929;28;20648;-74
2022/08/15 01:05:59;;;;;;;6.22;5.78;;;19.50;99.90;;;;;;5032011;28;20220;-74
2022/08/15 01:08:32;;;;;;;6.97;6.38;;;19.50;99.90;;;;;;5024835;28;20182;-75
2022/08/15 01:11:02;;;;;;;7.10;6.50;;;19.50;99.90;;;;;;5035190;28;20650;-75
2022/08/15 01:13:28;;;;;;;6.15;5.75;;;19.50;99.90;;;;;;5028702;28;20200;-74
2022/08/15 01:15:55;;;;;;;7.20;6.70;;;19.40;99.90;;;;;;5034333;28;20253;-74
2022/08/15 01:18:20;;;;;;;7.30;6.80;;;19.50;99.90;;;;;;5027603;28;20176;-75
2022/08/15 01:20:48;;;;;;;6.93;6.35;;;19.50;99.90;;;;;;5029525;28;20552;-76
2022/08/15 01:23:41;;;;;;;6.93;6.32;;;19.50;99.90;;;;;;5030559;28;20176;-76
2022/08/15 01:26:08;;;;;;;7.80;7.10;;;19.50;99.90;;;;;;5031632;28;20212;-75
2022/08/15 01:28:38;;;;;;;7.18;6.68;;;19.60;99.90;;;;;;5030523;28;20182;-75
2022/08/15 01:31:09;;;;;;;7.63;7.03;;;19.60;99.90;;;;;;5033196;28;20187;-76
2022/08/15 01:33:41;;;;;;;6.93;6.43;;;19.60;99.90;;;;;;5028175;28;20177;-76
2022/08/15 01:36:07;;;;;;;7.22;6.63;;;19.50;99.90;;;;;;5033530;28;20204;-76
2022/08/15 01:38:58;;;;;;;7.30;6.70;;;19.40;99.90;;;;;;5025462;28;20256;-76
2022/08/15 01:41:59;;;;;;;7.53;6.90;;;19.40;99.90;;;;;;5026581;28;20193;-76
2022/08/15 01:44:43;;;;;;;7.80;7.10;;;19.30;99.90;;;;;;5030605;28;20205;-76
2022/08/15 01:47:26;;;;;;;7.22;6.68;;;19.20;99.90;;;;;;5026629;28;20201;-75
2022/08/15 01:50:11;;;;;;;7.63;7.03;;;19.20;99.90;;;;;;5027873;28;20663;-75
2022/08/15 01:52:43;;;;;;;7.85;7.18;;;19.10;99.90;;;;;;5036538;28;20549;-75
2022/08/15 01:55:11;;;;;;;7.68;7.07;;;19.10;99.90;;;;;;5024428;28;20549;-75
2022/08/15 01:57:37;;;;;;;7.20;6.70;;;19.10;99.90;;;;;;5031910;28;20201;-76
2022/08/15 02:00:05;;;;;;;7.97;7.35;;;19.10;99.90;;;;;;5027094;28;20559;-75
2022/08/15 02:02:31;;;;;;;7.47;6.97;;;19.10;99.90;;;;;;5027891;28;20185;-76
2022/08/15 02:04:57;;;;;;;7.53;6.82;;;19.10;99.90;;;;;;5035161;28;20211;-76
2022/08/15 02:07:28;;;;;;;7.90;7.28;;;19.10;99.90;;;;;;5027661;28;20207;-75
2022/08/15 02:09:54;;;;;;;7.90;7.30;;;19.10;99.90;;;;;;5027757;28;20639;-75
2022/08/15 02:12:27;;;;;;;7.80;7.13;;;19.20;99.90;;;;;;5028050;28;20188;-75
2022/08/15 02:14:53;;;;;;;8.65;7.95;;;19.20;99.90;;;;;;5026217;28;20267;-75
2022/08/15 02:17:18;;;;;;;8.13;7.38;;;19.30;99.90;;;;;;5027186;28;20280;-75
2022/08/15 02:19:46;;;;;;;8.63;7.93;;;19.30;99.90;;;;;;5027319;28;20659;-78
2022/08/15 02:22:13;;;;;;;8.80;8.10;;;19.20;99.90;;;;;;5030205;28;20189;-76
2022/08/15 02:24:39;;;;;;;8.20;7.50;;;19.20;99.90;;;;;;5026230;28;20570;-75
2022/08/15 02:27:06;;;;;;;7.95;7.35;;;19.20;99.90;;;;;;5028711;28;20200;-75
2022/08/15 02:29:33;;;;;;;8.27;7.57;;;19.10;99.90;;;;;;5024810;28;20184;-75
2022/08/15 02:32:12;;;;;;;8.57;7.88;;;19.10;99.90;;;;;;5028010;28;20204;-73
2022/08/15 02:34:39;;;;;;;7.97;7.28;;;19.10;99.90;;;;;;5026763;28;20231;-76
2022/08/15 02:37:06;;;;;;;8.48;7.60;;;19.00;99.90;;;;;;5029184;28;20288;-74
2022/08/15 02:39:32;;;;;;;8.88;8.05;;;19.00;99.90;;;;;;5027831;28;20255;-74
2022/08/15 02:41:58;;;;;;;8.73;7.95;;;19.00;99.90;;;;;;5031606;28;20625;-74
2022/08/15 02:44:23;;;;;;;7.80;7.20;;;18.90;99.90;;;;;;5030896;28;20215;-74
2022/08/15 02:46:54;;;;;;;8.13;7.38;;;19.00;99.90;;;;;;5025865;28;20208;-74
2022/08/15 02:49:23;;;;;;;8.45;7.75;;;19.00;99.90;;;;;;5024355;28;20184;-74
2022/08/15 02:51:50;;;;;;;8.07;7.38;;;19.10;99.90;;;;;;5034533;28;20176;-74
2022/08/15 02:54:17;;;;;;;8.35;7.65;;;19.10;99.90;;;;;;5028320;28;20187;-76
2022/08/15 02:56:44;;;;;;;9.20;8.40;;;19.10;99.90;;;;;;5028443;28;20226;-73
2022/08/15 02:59:10;;;;;;;8.40;7.72;;;19.10;99.90;;;;;;5029307;28;20204;-74
2022/08/15 03:01:38;;;;;;;8.18;7.47;;;19.10;99.90;;;;;;5025894;28;20600;-74
2022/08/15 03:04:12;;;;;;;7.75;7.15;;;19.00;99.90;;;;;;5023885;28;20682;-74
2022/08/15 03:06:43;;;;;;;7.97;7.32;;;19.00;99.90;;;;;;5032973;28;20199;-74
2022/08/15 03:09:10;;;;;;;7.88;7.22;;;19.00;99.90;;;;;;5023900;28;20207;-74
2022/08/15 03:11:38;;;;;;;8.63;7.82;;;19.00;99.90;;;;;;5026766;28;20177;-76
2022/08/15 03:14:07;;;;;;;7.95;7.35;;;18.90;99.90;;;;;;5024189;28;20196;-76
2022/08/15 03:16:40;;;;;;;8.35;7.60;;;18.90;99.90;;;;;;5030062;28;20192;-76
2022/08/15 03:19:06;;;;;;;8.18;7.57;;;18.80;99.90;;;;;;5021333;28;20187;-76
2022/08/15 03:21:32;;;;;;;8.05;7.45;;;18.70;99.90;;;;;;5024821;28;20648;-76
2022/08/15 03:23:58;;;;;;;8.32;7.63;;;18.70;99.90;;;;;;5031988;28;20184;-75
2022/08/15 03:26:25;;;;;;;7.85;7.30;;;18.70;99.90;;;;;;5026292;28;20194;-75
2022/08/15 03:28:51;;;;;;;8.68;7.85;;;18.70;99.90;;;;;;5022090;28;20263;-75
2022/08/15 03:31:18;;;;;;;9.25;8.48;;;18.70;99.90;;;;;;5034248;28;20187;-75
2022/08/15 03:33:47;;;;;;;8.32;7.63;;;18.70;99.90;;;;;;5029628;28;20259;-75
2022/08/15 03:36:15;;;;;;;8.60;7.90;;;18.70;99.90;;;;;;5026462;28;20205;-75
2022/08/15 03:38:41;;;;;;;8.85;8.15;;;18.70;99.90;;;;;;5025031;28;20180;-74
2022/08/15 03:41:08;;;;;;;9.27;8.38;;;18.70;99.90;;;;;;5028817;28;20184;-74
2022/08/15 03:43:37;;;;;;;8.77;8.07;;;18.70;99.90;;;;;;5029848;28;20656;-74
2022/08/15 03:46:07;;;;;;;7.45;6.90;;;18.60;99.90;;;;;;5039653;28;20222;-74
2022/08/15 03:48:41;;;;;;;8.38;7.75;;;18.60;99.90;;;;;;5022121;28;20192;-74
2022/08/15 03:51:08;;;;;;;8.50;7.80;;;18.60;99.90;;;;;;5027289;28;20180;-74
2022/08/15 03:53:44;;;;;;;8.23;7.53;;;18.70;99.90;;;;;;5037411;28;20176;-74
2022/08/15 03:56:13;;;;;;;8.93;8.02;;;18.60;99.90;;;;;;5033822;28;20188;-73
2022/08/15 03:58:39;;;;;;;8.93;8.02;;;18.60;99.90;;;;;;5022835;28;20185;-73
2022/08/15 04:01:11;;;;;;;8.23;7.60;;;18.70;99.90;;;;;;5035232;28;20640;-73
2022/08/15 04:03:36;;;;;;;8.02;7.38;;;18.60;99.90;;;;;;5024509;28;20587;-74
2022/08/15 04:06:07;;;;;;;7.78;7.18;;;18.60;99.90;;;;;;5027161;28;20295;-74
2022/08/15 04:08:34;;;;;;;8.10;7.50;;;18.70;99.90;;;;;;5028266;28;20236;-74
2022/08/15 04:11:03;;;;;;;8.25;7.55;;;18.70;99.90;;;;;;5031519;28;20184;-74
2022/08/15 04:13:29;;;;;;;8.18;7.50;;;18.70;99.90;;;;;;5035169;28;20188;-75
2022/08/15 04:15:58;;;;;;;8.25;7.55;;;18.70;99.90;;;;;;5026923;28;20346;-75
2022/08/15 04:18:27;;;;;;;8.88;8.07;;;18.80;99.90;;;;;;5023709;28;20275;-72
2022/08/15 04:20:58;;;;;;;9.02;8.27;;;18.80;99.90;;;;;;5045533;28;20191;-74
2022/08/15 04:23:25;;;;;;;9.18;8.48;;;18.90;99.90;;;;;;5026373;28;20682;-74
2022/08/15 04:25:51;;;;;;;8.32;7.70;;;19.00;99.90;;;;;;5029023;28;20239;-75
2022/08/15 04:28:19;;;;;;;8.77;8.07;;;19.00;99.90;;;;;;5028901;28;20172;-75
2022/08/15 04:30:47;;;;;;;9.18;8.38;;;19.10;99.90;;;;;;5027067;28;20180;-76
2022/08/15 04:33:17;;;;;;;8.43;7.63;;;19.20;99.90;;;;;;5024522;28;20177;-76
2022/08/15 04:35:46;;;;;;;9.27;8.48;;;19.30;99.90;;;;;;5031000;28;20183;-76
2022/08/15 04:38:12;;;;;;;8.70;8.00;;;19.40;99.90;;;;;;5030185;28;20682;-76
2022/08/15 04:40:40;;;;;;;7.82;7.10;;;19.50;99.90;;;;;;5031508;28;20173;-76
2022/08/15 04:43:06;;;;;;;8.55;7.60;;;19.60;99.90;;;;;;5022481;28;20652;-76
2022/08/15 04:45:34;;;;;;;7.93;7.38;;;19.60;99.90;;;;;;5028339;28;20210;-76
2022/08/15 04:48:02;;;;;;;9.38;8.55;;;19.80;99.90;;;;;;5021604;28;20185;-76
2022/08/15 04:50:30;;;;;;;8.77;8.05;;;19.80;99.90;;;;;;5027405;28;20177;-76
2022/08/15 04:52:57;;;;;;;9.20;8.30;;;20.00;99.90;;;;;;5025156;28;20176;-74
2022/08/15 04:55:25;;;;;;;8.52;7.75;;;20.10;99.90;;;;;;5028539;28;20192;-74
2022/08/15 04:57:56;;;;;;;8.85;8.15;;;20.20;99.90;;;;;;5027290;28;20599;-74
2022/08/15 05:00:25;;;;;;;8.98;8.27;;;20.20;99.90;;;;;;5023709;28;20274;-75
2022/08/15 05:02:59;;;;;;;7.82;7.13;;;20.30;99.90;;;;;;5026278;28;20177;-76
2022/08/15 05:05:25;;;;;;;8.07;7.47;;;20.30;99.90;;;;;;5027666;28;20208;-76
2022/08/15 05:07:51;;;;;;;8.10;7.35;;;20.40;99.90;;;;;;5019248;28;20180;-76
2022/08/15 05:10:16;;;;;;;8.18;7.45;;;20.50;99.90;;;;;;5032181;28;20259;-75
2022/08/15 05:12:42;;;;;;;8.65;7.90;;;20.60;99.90;;;;;;5024895;28;20197;-76
2022/08/15 05:15:10;;;;;;;7.97;7.38;;;20.70;99.90;;;;;;5027053;28;20181;-76
2022/08/15 05:17:36;;;;;;;9.43;8.63;;;20.80;99.90;;;;;;5027200;28;20196;-75
2022/08/15 05:20:01;;;;;;;8.30;7.65;;;20.90;99.90;;;;;;5023585;28;20241;-75
2022/08/15 05:22:27;;;;;;;8.18;7.30;;;20.90;99.90;;;;;;5029142;28;20177;-76
2022/08/15 05:24:52;;;;;;;8.15;7.55;;;21.00;99.90;;;;;;5029631;28;20200;-75
2022/08/15 05:27:18;;;;;;;8.48;7.85;;;21.10;99.90;;;;;;5022381;28;20197;-75
2022/08/15 05:29:44;;;;;;;8.32;7.72;;;21.10;99.90;;;;;;5025382;28;20263;-75
2022/08/15 05:32:10;;;;;;;8.73;8.02;;;21.10;99.90;;;;;;5031154;28;20470;-75
2022/08/15 05:34:35;;;;;;;8.40;7.60;;;21.10;99.90;;;;;;5031969;28;20188;-76
2022/08/15 05:37:02;;;;;;;9.38;8.48;;;21.00;99.90;;;;;;5024762;28;20204;-76
2022/08/15 05:39:30;;;;;;;9.35;8.23;;;21.00;99.90;;;;;;5029468;28;20185;-76
2022/08/15 05:42:24;;;;;;;9.15;8.35;;;21.00;99.90;;;;;;5025202;28;20561;-76
2022/08/15 05:45:08;;;;;;;8.23;7.57;;;20.90;99.90;;;;;;5025902;28;20589;-76
2022/08/15 05:47:56;;;;;;;8.77;7.97;;;20.90;99.90;;;;;;5026786;28;20193;-76
2022/08/15 05:50:48;;;;;;;8.20;7.50;;;20.90;99.90;;;;;;5025584;28;20189;-75
2022/08/15 05:53:22;;;;;;;8.00;7.35;;;20.90;99.90;;;;;;5023133;28;20177;-75
2022/08/15 05:55:59;;;;;;;7.95;7.25;;;20.90;99.90;;;;;;5031653;28;20199;-75
2022/08/15 05:58:45;;;;;;;8.10;7.40;;;20.90;99.90;;;;;;5023849;28;20532;-75
2022/08/15 06:01:24;;;;;;;8.18;7.50;;;20.90;99.90;;;;;;5027468;28;20185;-75
2022/08/15 06:04:07;;;;;;;7.88;7.22;;;20.90;99.90;;;;;;5020703;28;20876;-76
2022/08/15 06:06:35;;;;;;;8.35;7.50;;;20.90;99.90;;;;;;5024197;28;20204;-76
2022/08/15 06:09:27;;;;;;;8.27;7.63;;;21.00;99.90;;;;;;5028375;28;20232;-75
2022/08/15 06:11:55;;;;;;;8.23;7.53;;;21.00;99.90;;;;;;5028189;28;20246;-75
2022/08/15 06:14:32;;;;;;;8.30;7.45;;;21.10;99.90;;;;;;5022804;28;20721;-76
2022/08/15 06:17:28;;;;;;;7.65;6.93;;;21.10;99.90;;;;;;5024379;28;20207;-76
2022/08/15 06:19:58;;;;;;;7.63;6.93;;;21.30;99.90;;;;;;5028226;28;20200;-77
2022/08/15 06:22:45;;;;;;;6.82;6.32;;;21.50;99.90;;;;;;5026448;28;20181;-76
2022/08/15 06:25:39;;;;;;;7.65;6.97;;;21.60;99.90;;;;;;5029236;28;20207;-76
2022/08/15 06:28:29;;;;;;;7.07;6.40;;;21.80;99.90;;;;;;5029360;28;20181;-74
2022/08/15 06:31:18;;;;;;;7.07;6.47;;;22.00;99.90;;;;;;5024231;28;20185;-75
2022/08/15 06:34:27;;;;;;;7.80;7.22;;;22.30;99.90;;;;;;5030540;28;20183;-75
2022/08/15 06:37:16;;;;;;;7.22;6.63;;;22.50;99.90;;;;;;5027786;28;20729;-74
2022/08/15 06:40:02;;;;;;;6.60;6.07;;;22.70;99.90;;;;;;5012637;28;20193;-76
2022/08/15 06:42:34;;;;;;;7.38;5.95;;;22.90;99.90;;;;;;5019642;28;20189;-76
2022/08/15 06:45:22;;;;;;;7.05;6.45;;;23.10;99.90;;;;;;5027149;28;20204;-75
2022/08/15 06:47:51;;;;;;;6.80;6.22;;;23.20;99.90;;;;;;5025057;28;20197;-74
2022/08/15 06:50:25;;;;;;;6.85;6.35;;;23.50;99.90;;;;;;5027094;28;20676;-75
2022/08/15 06:53:02;;;;;;;6.57;6.18;;;23.60;99.90;;;;;;5023375;28;20176;-74
2022/08/15 06:55:44;;;;;;;7.50;6.82;;;23.80;99.90;;;;;;5029379;28;20205;-75
2022/08/15 06:58:16;;;;;;;7.63;7.03;;;24.00;99.90;;;;;;5027038;28;20200;-75
2022/08/15 07:00:57;;;;;;;7.97;7.20;;;24.00;99.90;;;;;;5030128;28;20180;-75
2022/08/15 07:03:44;;;;;;;7.72;7.13;;;24.00;99.90;;;;;;5022084;28;20180;-75
2022/08/15 07:06:14;;;;;;;7.93;7.32;;;24.20;99.90;;;;;;5030185;28;20251;-75
2022/08/15 07:08:52;;;;;;;8.13;7.30;;;24.40;99.90;;;;;;5024601;28;20184;-75
2022/08/15 07:11:37;;;;;;;7.03;6.40;;;24.50;99.90;;;;;;5027919;28;20706;-73
2022/08/15 07:14:06;;;;;;;6.85;6.35;;;24.70;99.90;;;;;;5026288;28;20618;-73
2022/08/15 07:16:35;;;;;;;7.15;6.43;;;24.90;99.90;;;;;;5023408;28;20197;-74
2022/08/15 07:19:01;;;;;;;6.40;5.90;;;25.10;99.90;;;;;;5026677;28;20200;-74
2022/08/15 07:21:27;;;;;;;6.15;5.65;;;25.30;99.90;;;;;;5022911;28;20196;-73
2022/08/15 07:24:25;;;;;;;6.38;5.88;;;25.50;99.90;;;;;;5025657;28;20177;-74
2022/08/15 07:27:14;;;;;;;5.90;5.40;;;25.70;99.00;;;;;;5023217;28;20618;-73
2022/08/15 07:29:48;;;;;;;5.25;4.85;;;25.80;96.80;;;;;;5023240;28;20542;-72
2022/08/15 07:32:50;;;;;;;6.45;5.85;;;25.80;95.60;;;;;;5024598;28;20238;-72
2022/08/15 07:35:33;;;;;;;5.88;4.93;;;25.90;95.40;;;;;;5019842;28;20607;-74
2022/08/15 07:38:03;;;;;;;5.30;4.80;;;25.70;95.30;;;;;;5027971;28;20604;-74
2022/08/15 07:40:36;;;;;;;5.30;4.90;;;25.70;94.20;;;;;;5021066;28;20605;-74
2022/08/15 07:43:05;;;;;;;5.43;4.93;;;25.70;94.30;;;;;;5021970;28;20620;-74
2022/08/15 07:45:37;;;;;;;5.95;4.82;;;25.80;94.30;;;;;;5024044;28;20200;-72
2022/08/15 07:48:19;;;;;;;6.38;5.32;;;25.90;94.30;;;;;;5029254;28;20549;-72
2022/08/15 07:51:00;;;;;;;5.10;4.50;;;25.90;93.50;;;;;;5026541;28;20180;-72
2022/08/15 07:53:26;;;;;;;3.92;3.63;;;26.00;92.20;;;;;;5026050;28;20643;-72
2022/08/15 07:56:19;;;;;;;4.43;4.03;;;25.80;92.20;;;;;;5024527;28;20211;-72
2022/08/15 07:58:44;;;;;;;4.07;3.78;;;25.60;92.10;;;;;;5018198;28;20239;-72
2022/08/15 08:01:14;;;;;;;4.28;3.65;;;25.40;91.70;;;;;;5025350;28;20711;-74
2022/08/15 08:03:45;;;;;;;4.00;3.70;;;25.10;92.30;;;;;;5030569;28;20235;-74
2022/08/15 08:06:36;;;;;;;4.07;3.53;;;24.90;92.10;;;;;;5025227;28;20440;-75
2022/08/15 08:09:41;;;;;;;3.58;3.38;;;24.70;92.50;;;;;;5019878;28;20181;-75
2022/08/15 08:12:23;;;;;;;4.00;3.70;;;24.50;92.60;;;;;;5017037;28;20290;-74
2022/08/15 08:15:04;;;;;;;5.28;3.83;;;24.50;92.60;;;;;;5027178;28;20220;-74
2022/08/15 08:17:47;;;;;;;5.53;4.30;;;24.30;93.30;;;;;;5022186;28;20291;-75
2022/08/15 08:20:24;;;;;;;3.00;2.80;;;24.30;93.40;;;;;;5021256;28;20565;-74
2022/08/15 08:22:57;;;;;;;3.75;3.45;;;24.30;93.10;;;;;;5027487;28;20213;-75
2022/08/15 08:25:28;;;;;;;4.20;3.80;;;24.30;93.30;;;;;;5027833;28;20270;-75
2022/08/15 08:28:12;;;;;;;3.53;3.33;;;24.30;93.40;;;;;;5023931;28;20569;-75
2022/08/15 08:30:57;;;;;;;3.90;3.47;;;24.30;93.30;;;;;;5027901;28;20792;-74
2022/08/15 08:33:38;;;;;;;3.90;3.55;;;24.20;94.10;;;;;;5023027;28;20187;-74
2022/08/15 08:36:21;;;;;;;3.88;3.58;;;24.00;94.00;;;;;;5030980;28;20204;-74
2022/08/15 08:39:17;;;;;;;3.80;3.50;;;23.90;94.60;;;;;;5026148;28;20180;-74
2022/08/15 08:42:01;;;;;;;4.05;3.63;;;23.80;95.20;;;;;;5032358;28;20531;-74
2022/08/15 08:44:27;;;;;;;4.50;3.75;;;23.60;95.50;;;;;;5027857;28;20197;-75
2022/08/15 08:47:17;;;;;;;3.85;3.53;;;23.60;95.80;;;;;;5031432;28;20212;-76
2022/08/15 08:49:55;;;;;;;3.88;3.55;;;23.60;95.80;;;;;;5032206;28;20184;-76
2022/08/15 08:52:43;;;;;;;4.32;3.60;;;23.70;95.80;;;;;;5026083;28;20173;-76
2022/08/15 08:55:34;;;;;;;3.60;3.30;;;23.60;96.00;;;;;;5025204;28;20192;-76
2022/08/15 08:58:06;;;;;;;3.80;3.50;;;23.60;96.00;;;;;;5024345;28;20378;-76
2022/08/15 09:00:40;;;;;;;3.60;3.30;;;23.70;96.50;;;;;;5026336;28;20183;-73
2022/08/15 09:03:17;;;;;;;3.47;3.28;;;23.70;97.60;;;;;;5031528;28;20176;-74
2022/08/15 09:05:53;;;;;;;6.63;3.88;;;23.60;99.80;;;;;;5027890;28;20776;-74
2022/08/15 09:08:34;;;;;;;4.20;3.90;;;23.60;99.90;;;;;;5033406;28;20172;-74
2022/08/15 09:11:26;;;;;;;5.32;4.00;;;23.30;99.90;;;;;;5020743;28;20173;-75
2022/08/15 09:13:55;;;;;;;4.20;3.80;;;23.10;99.90;;;;;;5022697;28;20203;-74
2022/08/15 09:16:32;;;;;;;3.85;3.60;;;23.10;99.90;;;;;;5024322;28;20608;-75
2022/08/15 09:19:19;;;;;;;4.20;3.80;;;23.30;99.90;;;;;;5022525;28;20718;-75
2022/08/15 09:21:47;;;;;;;4.15;3.30;;;23.60;99.90;;;;;;5029853;28;20192;-75
2022/08/15 09:24:15;;;;;;;3.65;3.33;;;24.10;99.90;;;;;;5027388;28;20188;-74
2022/08/15 09:27:06;;;;;;;4.07;3.53;;;24.90;99.90;;;;;;5033336;28;20675;-73
2022/08/15 09:29:43;;;;;;;3.25;3.05;;;25.60;99.90;;;;;;5039233;28;20238;-75
2022/08/15 09:32:28;;;;;;;3.85;3.38;;;26.20;96.30;;;;;;5026126;28;20268;-76
2022/08/15 09:35:11;;;;;;;3.40;3.10;;;26.50;94.40;;;;;;5028433;28;20180;-74
2022/08/15 09:38:05;;;;;;;3.47;3.22;;;26.70;93.50;;;;;;5025227;28;20204;-75
2022/08/15 09:40:50;;;;;;;3.63;3.33;;;26.70;92.90;;;;;;5026042;28;20177;-75
2022/08/15 09:43:24;;;;;;;4.63;3.13;;;27.10;91.80;;;;;;5025489;28;20188;-74
2022/08/15 09:46:30;;;;;;;3.38;3.17;;;27.80;90.40;;;;;;5022293;28;20303;-74
2022/08/15 09:49:40;;;;;;;3.08;2.85;;;28.40;87.20;;;;;;5023946;28;20176;-74
2022/08/15 09:52:34;;;;;;;5.93;3.58;;;29.00;83.70;;;;;;5040864;28;20216;-73
2022/08/15 09:55:16;;;;;;;3.30;2.88;;;29.60;81.30;;;;;;5024094;28;20532;-74
2022/08/15 09:57:48;;;;;;;2.90;2.67;;;30.30;77.30;;;;;;5019312;28;20197;-73
2022/08/15 10:00:15;;;;;;;3.25;2.92;;;30.20;75.40;;;;;;5024684;28;20603;-74
2022/08/15 10:02:42;;;;;;;3.38;3.08;;;30.40;73.80;;;;;;5022760;28;20185;-73
2022/08/15 10:05:40;;;;;;;3.03;2.80;;;30.60;73.20;;;;;;5028461;28;20223;-73
2022/08/15 10:08:09;;;;;;;3.33;2.63;;;31.10;71.70;;;;;;5029277;28;20191;-73
2022/08/15 10:11:11;;;;;;;4.75;3.22;;;32.50;67.70;;;;;;5023025;28;20173;-72
2022/08/15 10:13:40;;;;;;;3.63;3.13;;;33.80;63.70;;;;;;5023462;28;20195;-74
2022/08/15 10:16:41;;;;;;;4.35;2.83;;;34.70;59.70;;;;;;5021364;28;20279;-74
2022/08/15 10:19:27;;;;;;;2.90;2.70;;;35.50;57.00;;;;;;5023209;28;20180;-74
2022/08/15 10:21:58;;;;;;;2.55;2.35;;;36.70;54.30;;;;;;5030094;28;20180;-74
2022/08/15 10:24:28;;;;;;;2.83;2.55;;;37.60;51.80;;;;;;5025892;28;20200;-74
2022/08/15 10:27:07;;;;;;;2.40;2.30;;;37.50;51.10;;;;;;5026091;28;20192;-74
2022/08/15 10:29:34;;;;;;;3.47;2.10;;;38.70;49.20;;;;;;5022522;28;20218;-73
2022/08/15 10:32:00;;;;;;;2.22;2.13;;;40.30;47.20;;;;;;5029729;28;20226;-74
2022/08/15 10:34:35;;;;;;;2.88;2.03;;;41.40;45.00;;;;;;5028776;28;20651;-72
2022/08/15 10:37:18;;;;;;;2.50;2.28;;;41.80;43.40;;;;;;5024688;28;20210;-74
2022/08/15 10:39:44;;;;;;;2.72;2.22;;;41.30;43.30;;;;;;5031497;28;20175;-74
2022/08/15 10:42:33;;;;;;;3.60;2.35;;;40.70;43.80;;;;;;5028196;28;20200;-74
2022/08/15 10:45:23;;;;;;;2.88;1.95;;;40.90;44.10;;;;;;5027775;28;20199;-74
2022/08/15 10:48:07;;;;;;;1.90;1.75;;;41.60;42.80;;;;;;5018053;28;20306;-73
2022/08/15 10:50:44;;;;;;;1.70;1.70;;;42.50;39.80;;;;;;5024545;28;20180;-74
2022/08/15 10:53:11;;;;;;;2.03;1.92;;;43.00;39.30;;;;;;5026198;28;20666;-74
2022/08/15 10:55:39;;;;;;;1.70;1.60;;;42.70;40.00;;;;;;5027731;28;20221;-72
2022/08/15 10:58:09;;;;;;;2.20;2.00;;;42.40;39.80;;;;;;5017035;28;20577;-73
2022/08/15 11:00:41;;;;;;;2.10;1.85;;;42.70;39.60;;;;;;5029218;28;20184;-74
2022/08/15 11:03:18;;;;;;;1.83;1.73;;;43.60;38.50;;;;;;5022096;28;20184;-74
2022/08/15 11:05:53;;;;;;;2.05;1.95;;;44.30;37.50;;;;;;5020425;28;20195;-74
2022/08/15 11:08:19;;;;;;;1.80;1.70;;;44.00;37.40;;;;;;5018531;28;20255;-74
2022/08/15 11:10:47;;;;;;;2.28;1.98;;;42.80;37.70;;;;;;5023816;28;20694;-75
2022/08/15 11:13:17;;;;;;;1.70;1.60;;;40.60;40.50;;;;;;5029385;28;20196;-73
2022/08/15 11:15:55;;;;;;;2.03;1.90;;;39.10;42.70;;;;;;5028384;28;20204;-72
2022/08/15 11:18:34;;;;;;;1.88;1.77;;;37.60;43.80;;;;;;5023743;28;20211;-72
2022/08/15 11:21:23;;;;;;;1.88;1.70;;;36.80;45.20;;;;;;5030469;28;20602;-72
2022/08/15 11:24:09;;;;;;;2.00;1.90;;;36.20;46.20;;;;;;5031391;28;20187;-72
2022/08/15 11:26:40;;;;;;;1.83;1.80;;;36.00;46.90;;;;;;5028452;28;20720;-72
2022/08/15 11:29:15;;;;;;;2.10;2.00;;;36.30;47.10;;;;;;5027698;28;20238;-74
2022/08/15 11:31:58;;;;;;;1.90;1.80;;;37.60;45.20;;;;;;5031025;28;20222;-74
2022/08/15 11:34:39;;;;;;;1.63;1.63;;;38.90;43.40;;;;;;5028286;28;20179;-74
2022/08/15 11:37:08;;;;;;;2.25;1.40;;;40.20;41.60;;;;;;5026022;28;20662;-73
2022/08/15 11:39:41;;;;;;;1.70;1.60;;;40.30;40.60;;;;;;5024247;28;20525;-72
2022/08/15 11:42:10;;;;;;;1.67;1.58;;;39.50;41.20;;;;;;5023809;28;20180;-72
2022/08/15 11:44:46;;;;;;;2.30;1.60;;;40.30;41.10;;;;;;5029238;28;20197;-72
2022/08/15 11:47:15;;;;;;;1.75;1.65;;;41.70;39.40;;;;;;5027555;28;20203;-73
2022/08/15 11:49:50;;;;;;;1.52;1.42;;;42.40;38.40;;;;;;5027053;28;20180;-72
2022/08/15 11:52:32;;;;;;;1.40;1.30;;;42.70;38.80;;;;;;5029520;28;20561;-72
2022/08/15 11:55:20;;;;;;;1.70;1.60;;;42.00;38.40;;;;;;5024704;28;20215;-74
2022/08/15 11:57:49;;;;;;;1.73;1.58;;;40.70;39.60;;;;;;5025000;28;20207;-74
2022/08/15 12:00:28;;;;;;;1.48;1.38;;;40.50;39.80;;;;;;5025796;28;20202;-74
2022/08/15 12:02:55;;;;;;;1.38;1.30;;;40.50;40.40;;;;;;5027734;28;20190;-72
2022/08/15 12:05:31;;;;;;;1.63;1.25;;;40.70;37.60;;;;;;5038486;28;20200;-72
2022/08/15 12:08:00;;;;;;;3.80;1.23;;;40.70;37.30;;;;;;5024865;28;20175;-73
2022/08/15 12:10:36;;;;;;;1.20;1.10;;;40.90;36.80;;;;;;5028503;28;20435;-74
2022/08/15 12:13:02;;;;;;;1.10;1.10;;;40.90;37.40;;;;;;5029456;28;20274;-73
2022/08/15 12:15:33;;;;;;;1.23;1.23;;;40.40;37.10;;;;;;5034692;28;20314;-74
2022/08/15 12:18:17;;;;;;;2.35;1.10;;;39.90;37.40;;;;;;5032989;28;20194;-73
2022/08/15 12:20:47;;;;;;;1.05;1.05;;;39.40;37.30;;;;;;5030662;28;20215;-73
2022/08/15 12:23:25;;;;;;;1.02;1.02;;;38.90;37.30;;;;;;5026108;28;20191;-73
2022/08/15 12:25:53;;;;;;;1.35;1.25;;;38.40;37.90;;;;;;5031710;28;20204;-73
2022/08/15 12:28:19;;;;;;;0.88;0.80;;;38.20;38.70;;;;;;5041603;28;20752;-73
2022/08/15 12:30:46;;;;;;;0.80;0.80;;;38.10;38.40;;;;;;5023990;28;20184;-73
2022/08/15 12:33:12;;;;;;;0.85;0.85;;;38.30;38.10;;;;;;5028368;28;20176;-74
2022/08/15 12:35:38;;;;;;;1.48;1.20;;;38.00;38.20;;;;;;5027547;28;20184;-74
2022/08/15 12:38:04;;;;;;;0.93;0.90;;;38.10;38.70;;;;;;5027889;28;20544;-73
2022/08/15 12:40:29;;;;;;;0.90;0.90;;;38.30;38.70;;;;;;5032481;28;20639;-73
2022/08/15 12:42:55;;;;;;;1.35;1.25;;;38.90;38.50;;;;;;5028330;28;20306;-73
2022/08/15 12:45:21;;;;;;;0.90;0.90;;;39.20;38.20;;;;;;5031335;28;20211;-73
2022/08/15 12:47:48;;;;;;;1.10;1.10;;;39.40;38.30;;;;;;5021202;28;20287;-72
2022/08/15 12:50:14;;;;;;;1.40;1.00;;;39.20;38.40;;;;;;5028940;28;20234;-73
2022/08/15 12:52:41;;;;;;;1.27;1.17;;;39.00;39.30;;;;;;5029882;28;20609;-73
2022/08/15 12:55:09;;;;;;;0.93;0.93;;;39.80;38.70;;;;;;5031094;28;20546;-73
2022/08/15 12:57:35;;;;;;;1.48;1.33;;;40.20;38.30;;;;;;5030231;28;20208;-73
2022/08/15 13:00:01;;;;;;;2.83;1.08;;;40.40;37.90;;;;;;5030602;28;20226;-73
2022/08/15 13:02:26;;;;;;;1.48;1.35;;;40.20;38.50;;;;;;5023499;28;20197;-73
2022/08/15 13:04:55;;;;;;;1.08;1.08;;;40.30;38.70;;;;;;5042419;28;20211;-73
2022/08/15 13:07:23;;;;;;;3.30;1.33;;;40.80;38.00;;;;;;5029864;28;20195;-73
2022/08/15 13:09:49;;;;;;;1.45;1.30;;;41.70;36.90;;;;;;5029707;28;20200;-73
2022/08/15 13:12:15;;;;;;;0.90;0.88;;;42.80;35.60;;;;;;5022031;28;20603;-74
2022/08/15 13:14:42;;;;;;;1.40;1.30;;;43.40;35.50;;;;;;5025036;28;20187;-74
2022/08/15 13:17:08;;;;;;;1.13;1.02;;;44.50;34.70;;;;;;5030391;28;20223;-75
2022/08/15 13:25:08;;;;;;;1.20;1.20;;;45.20;33.80;;;;;;5032374;28;20250;-74
2022/08/15 13:27:34;;;;;;;1.17;1.17;;;45.50;33.60;;;;;;5025436;28;20232;-74
2022/08/15 13:30:06;;;;;;;2.97;2.88;;;46.20;32.90;;;;;;5032457;28;20176;-75